createdAt,value
2023-05-21T00:04:52.364Z,101995.50
2023-05-21T00:09:56.226Z,101993.06
2023-05-21T00:14:58.771Z,101989.94
2023-05-21T00:20:02.127Z,101990.03
2023-05-21T00:25:06.918Z,101972.41
2023-05-21T00:30:10.013Z,101970.66
2023-05-21T00:35:12.734Z,101966.13
2023-05-21T00:40:16.889Z,101962.44
2023-05-21T00:45:19.756Z,101957.97
2023-05-21T00:50:23.059Z,101956.88
2023-05-21T00:55:27.066Z,101953.53
2023-05-21T01:00:29.661Z,101960.50
2023-05-21T01:05:32.472Z,101955.16
2023-05-21T01:10:36.340Z,101964.28
2023-05-21T01:15:39.160Z,101950.41
2023-05-21T01:20:42.429Z,101954.06
2023-05-21T01:25:47.146Z,101946.06
2023-05-21T01:30:49.948Z,101955.88
2023-05-21T01:35:58.688Z,101950.13
2023-05-21T01:41:05.086Z,101952.38
2023-05-21T01:46:10.596Z,101944.47
2023-05-21T01:51:13.864Z,101955.09
2023-05-21T01:56:17.717Z,101951.63
2023-05-21T02:01:20.343Z,101933.28
2023-05-21T02:06:22.939Z,101938.16
2023-05-21T02:11:27.756Z,101925.88
2023-05-21T02:16:30.293Z,101927.09
2023-05-21T02:21:32.816Z,101926.75
2023-05-21T02:26:37.323Z,101921.78
2023-05-21T02:31:39.870Z,101910.34
2023-05-21T02:36:42.805Z,101917.00
2023-05-21T02:41:46.814Z,101915.91
2023-05-21T02:46:49.350Z,101908.00
2023-05-21T02:51:51.877Z,101908.91
2023-05-21T02:56:55.718Z,101903.53
2023-05-21T03:01:58.272Z,101899.19
2023-05-21T03:07:02.185Z,101892.31
2023-05-21T03:12:06.881Z,101893.31
2023-05-21T03:17:13.761Z,101891.41
2023-05-21T03:22:16.469Z,101882.06
2023-05-21T03:27:20.434Z,101877.38
2023-05-21T03:32:23.157Z,101876.59
2023-05-21T03:37:25.793Z,101881.16
2023-05-21T03:42:29.646Z,101878.84
2023-05-21T03:47:32.174Z,101867.59
2023-05-21T03:52:34.726Z,101862.63
2023-05-21T03:57:38.625Z,101864.56
2023-05-21T04:02:41.227Z,101868.31
2023-05-21T04:07:46.318Z,101867.09
2023-05-21T04:12:52.458Z,101865.56
2023-05-21T04:17:55.483Z,101867.91
2023-05-21T04:22:58.071Z,101868.63
2023-05-21T04:28:02.103Z,101871.97
2023-05-21T04:33:04.879Z,101862.34
2023-05-21T04:38:08.473Z,101854.19
2023-05-21T04:43:12.339Z,101861.25
2023-05-21T04:48:15.736Z,101854.16
2023-05-21T04:53:18.632Z,101859.59
2023-05-21T04:58:22.497Z,101852.66
2023-05-21T05:03:25.149Z,101856.94
2023-05-21T05:08:27.736Z,101852.41
2023-05-21T05:13:31.623Z,101849.91
2023-05-21T05:18:34.338Z,101847.50
2023-05-21T05:23:36.873Z,101836.56
2023-05-21T05:28:40.731Z,101851.34
2023-05-21T05:33:43.239Z,101848.00
2023-05-21T05:38:45.772Z,101850.75
2023-05-21T05:43:49.621Z,101856.66
2023-05-21T05:48:52.193Z,101861.28
2023-05-21T05:53:54.737Z,101855.63
2023-05-21T05:58:59.597Z,101851.84
2023-05-21T06:04:02.143Z,101846.06
2023-05-21T06:09:04.856Z,101857.38
2023-05-21T06:14:08.719Z,101854.50
2023-05-21T06:19:11.307Z,101860.97
2023-05-21T06:24:13.863Z,101856.81
2023-05-21T06:29:18.096Z,101848.31
2023-05-21T06:34:20.670Z,101854.41
2023-05-21T06:39:24.535Z,101850.63
2023-05-21T06:44:28.427Z,101852.38
2023-05-21T06:49:30.941Z,101853.88
2023-05-21T06:54:33.507Z,101853.41
2023-05-21T06:59:37.418Z,101846.84
2023-05-21T07:04:39.964Z,101841.31
2023-05-21T07:09:42.503Z,101843.16
2023-05-21T07:14:46.386Z,101839.94
2023-05-21T07:19:48.938Z,101844.59
2023-05-21T07:24:51.506Z,101838.47
2023-05-21T07:29:55.446Z,101836.75
2023-05-21T07:34:58.024Z,101835.75
2023-05-21T08:09:53.952Z,101821.34
2023-05-21T08:14:59.283Z,101827.22
2023-05-21T08:20:02.454Z,101826.59
2023-05-21T08:25:08.398Z,101820.94
2023-05-21T08:30:12.932Z,101819.63
2023-05-21T08:35:15.755Z,101826.34
2023-05-21T08:40:20.696Z,101816.25
2023-05-21T08:45:24.766Z,101822.66
2023-05-21T08:50:29.161Z,101814.78
2023-05-21T08:55:35.083Z,101810.19
2023-05-21T09:00:38.374Z,101800.63
2023-05-21T09:05:42.125Z,101809.09
2023-05-21T09:10:50.633Z,101806.13
2023-05-21T09:15:53.662Z,101792.06
2023-05-21T09:20:56.608Z,101801.19
2023-05-21T09:26:02.210Z,101805.03
2023-05-21T09:31:05.630Z,101804.31
2023-05-21T09:36:09.274Z,101803.31
2023-05-21T09:41:13.796Z,101805.28
2023-05-21T09:46:16.708Z,101800.06
2023-05-21T09:51:21.388Z,101796.78
2023-05-21T09:56:29.425Z,101792.91
2023-05-21T10:01:33.816Z,101787.13
2023-05-21T10:06:42.268Z,101790.03
2023-05-21T10:11:50.778Z,101788.38
2023-05-21T10:16:55.396Z,101779.59
2023-05-21T10:21:58.557Z,101769.81
2023-05-21T10:27:03.988Z,101771.78
2023-05-21T10:32:07.930Z,101773.75
2023-05-21T10:37:14.052Z,101769.19
2023-05-21T10:42:22.921Z,101776.31
2023-05-21T10:47:49.094Z,101758.25
2023-05-21T10:53:01.770Z,101754.56
2023-05-21T10:58:45.437Z,101752.75
2023-05-21T11:03:48.991Z,101746.41
2023-05-21T11:08:55.248Z,101748.28
2023-05-21T11:13:59.972Z,101752.84
2023-05-21T11:19:04.005Z,101750.31
2023-05-21T11:24:10.944Z,101745.97
2023-05-21T11:29:16.702Z,101742.44
2023-05-21T11:34:21.971Z,101740.75
2023-05-21T11:39:27.257Z,101735.53
2023-05-21T11:44:43.590Z,101739.22
2023-05-21T11:49:48.129Z,101736.53
2023-05-21T11:54:55.309Z,101749.22
2023-05-21T12:00:11.137Z,101728.66
2023-05-21T12:05:14.035Z,101725.97
2023-05-21T12:10:17.653Z,101716.97
2023-05-21T12:15:23.204Z,101717.00
2023-05-21T12:20:28.570Z,101708.91
2023-05-21T12:25:32.862Z,101703.50
2023-05-21T12:30:37.706Z,101693.63
2023-05-21T12:35:40.801Z,101699.91
2023-05-21T12:40:45.658Z,101699.00
2023-05-21T12:45:50.123Z,101691.78
2023-05-21T12:50:53.315Z,101681.00
2023-05-21T12:55:57.295Z,101686.41
2023-05-21T13:01:03.951Z,101684.63
2023-05-21T13:06:09.941Z,101695.41
2023-05-21T13:11:13.673Z,101687.28
2023-05-21T13:16:18.125Z,101680.09
2023-05-21T13:21:21.329Z,101687.31
2023-05-21T13:26:24.662Z,101688.19
2023-05-21T13:37:47.147Z,101690.91
2023-05-21T13:42:50.620Z,101692.72
2023-05-21T13:47:53.730Z,101687.31
2023-05-21T13:52:57.611Z,101697.16
2023-05-21T13:58:00.414Z,101687.28
2023-05-21T14:03:03.059Z,101680.91
2023-05-21T14:08:08.137Z,101685.50
2023-05-21T14:13:19.138Z,101697.19
2023-05-21T14:18:22.406Z,101675.59
2023-05-21T14:23:26.290Z,101678.28
2023-05-21T14:28:28.838Z,101686.31
2023-05-21T14:33:32.758Z,101676.41
2023-05-21T14:38:36.637Z,101683.63
2023-05-21T14:43:39.186Z,101688.97
2023-05-21T14:48:41.747Z,101682.59
2023-05-21T14:53:45.607Z,101687.03
2023-05-21T14:58:48.213Z,101690.47
2023-05-21T15:03:51.214Z,101674.19
2023-05-21T15:08:55.367Z,101674.94
2023-05-21T15:13:57.905Z,101670.31
2023-05-21T15:19:00.487Z,101672.94
2023-05-21T15:24:04.852Z,101656.72
2023-05-21T15:29:07.407Z,101662.03
2023-05-21T15:34:09.983Z,101653.13
2023-05-21T15:39:13.888Z,101652.28
2023-05-21T15:44:16.404Z,101659.47
2023-05-21T15:49:18.934Z,101666.69
2023-05-21T15:54:22.796Z,101662.16
2023-05-21T15:59:27.463Z,101667.44
2023-05-21T16:04:32.882Z,101669.91
2023-05-21T16:09:38.122Z,101665.41
2023-05-21T16:14:40.734Z,101659.94
2023-05-21T16:19:43.325Z,101656.25
2023-05-21T16:24:48.054Z,101657.16
2023-05-21T16:29:50.768Z,101651.69
2023-05-21T16:34:53.305Z,101657.78
2023-05-21T16:39:57.168Z,101652.28
2023-05-21T16:44:59.805Z,101655.75
2023-05-21T16:50:02.319Z,101655.66
2023-05-21T16:55:07.123Z,101653.75
2023-05-21T17:00:10.463Z,101658.88
2023-05-21T17:05:12.999Z,101652.50
2023-05-21T17:10:17.048Z,101654.16
2023-05-21T17:15:19.690Z,101658.50
2023-05-21T17:20:22.218Z,101660.28
2023-05-21T17:25:26.219Z,101657.47
2023-05-21T17:30:28.754Z,101659.16
2023-05-21T17:35:31.309Z,101662.63
2023-05-21T17:40:35.160Z,101656.16
2023-05-21T17:45:37.898Z,101657.75
2023-05-21T17:50:40.592Z,101651.16
2023-05-21T17:55:44.692Z,101664.31
2023-05-21T18:00:47.237Z,101668.56
2023-05-21T18:05:50.344Z,101662.13
2023-05-21T18:10:54.221Z,101669.97
2023-05-21T18:15:57.357Z,101669.69
2023-05-21T18:21:00.197Z,101663.16
2023-05-21T18:26:04.418Z,101677.16
2023-05-21T18:31:06.957Z,101674.22
2023-05-21T18:36:09.717Z,101672.06
2023-05-21T18:41:13.660Z,101672.75
2023-05-21T18:46:16.237Z,101679.44
2023-05-21T18:51:18.866Z,101672.72
2023-05-21T18:56:22.800Z,101670.31
2023-05-21T19:01:25.507Z,101665.56
2023-05-21T19:06:28.080Z,101667.84
2023-05-21T19:11:34.331Z,101661.97
2023-05-21T19:16:37.036Z,101672.22
2023-05-21T19:21:39.912Z,101675.34
2023-05-21T19:26:43.769Z,101680.31
2023-05-21T19:31:46.385Z,101689.81
2023-05-21T19:36:52.901Z,101684.09
2023-05-21T19:41:57.830Z,101691.00
2023-05-21T19:47:00.431Z,101689.81
2023-05-21T19:52:03.158Z,101690.47
2023-05-21T19:57:08.268Z,101687.28
2023-05-21T20:02:15.079Z,101694.06
2023-05-21T20:07:17.924Z,101692.78
2023-05-21T20:12:21.778Z,101693.25
2023-05-21T20:17:24.969Z,101684.81
2023-05-21T20:22:27.639Z,101684.34
2023-05-21T20:27:31.974Z,101686.53
2023-05-21T20:32:34.691Z,101691.31
2023-05-21T20:37:37.233Z,101689.97
2023-05-21T20:42:41.643Z,101686.06
2023-05-21T20:47:44.760Z,101693.75
2023-05-21T20:52:47.579Z,101694.31
2023-05-21T20:57:51.444Z,101697.78
2023-05-21T21:02:54.556Z,101704.63
2023-05-21T21:07:57.140Z,101691.94
2023-05-21T21:13:01.007Z,101695.25
2023-05-21T21:18:03.734Z,101689.72
2023-05-21T21:23:06.360Z,101693.16
2023-05-21T21:28:10.609Z,101698.38
2023-05-21T21:33:14.320Z,101692.09
2023-05-21T21:38:17.032Z,101698.97
2023-05-21T21:43:20.973Z,101709.38
2023-05-21T21:48:23.510Z,101708.28
2023-05-21T21:53:26.143Z,101700.88
2023-05-21T21:58:30.039Z,101707.84
2023-05-21T22:03:34.198Z,101705.00
2023-05-21T22:08:36.717Z,101701.19
2023-05-21T22:13:41.646Z,101702.19
2023-05-21T22:18:44.264Z,101700.28
2023-05-21T22:23:46.824Z,101693.69
2023-05-21T22:28:51.384Z,101700.50
2023-05-21T22:33:53.893Z,101701.28
2023-05-21T22:38:56.500Z,101692.16
2023-05-21T22:44:00.399Z,101698.19
2023-05-21T22:49:02.983Z,101699.91
2023-05-21T22:54:05.787Z,101693.41
2023-05-21T22:59:09.621Z,101695.94
2023-05-21T23:04:12.140Z,101685.78
2023-05-21T23:09:14.683Z,101684.41
2023-05-21T23:14:18.753Z,101689.22
2023-05-21T23:19:21.401Z,101681.00
2023-05-21T23:24:24.228Z,101679.84
2023-05-21T23:29:28.265Z,101672.47
2023-05-21T23:34:30.803Z,101673.78
2023-05-21T23:39:33.309Z,101667.28
2023-05-21T23:44:37.171Z,101669.69
2023-05-21T23:49:40.141Z,101665.81
2023-05-21T23:54:42.669Z,101677.06
2023-05-21T23:59:47.552Z,101683.06
